sensor_id;sensor_type;location;lat;lon;timestamp;P1;durP1;ratioP1;P2;durP2;ratioP2
5054;SDS011;13829;48.990;8.346;2023-07-13T00:00:09;2.53;;;1.55;;
5054;SDS011;13829;48.990;8.346;2023-07-13T00:02:40;3.35;;;1.83;;
5054;SDS011;13829;48.990;8.346;2023-07-13T00:05:08;2.75;;;1.70;;
5054;SDS011;13829;48.990;8.346;2023-07-13T00:07:37;2.72;;;1.50;;
5054;SDS011;13829;48.990;8.346;2023-07-13T00:10:05;3.40;;;1.65;;
5054;SDS011;13829;48.990;8.346;2023-07-13T00:12:35;2.10;;;1.30;;
5054;SDS011;13829;48.990;8.346;2023-07-13T00:15:06;3.53;;;1.70;;
5054;SDS011;13829;48.990;8.346;2023-07-13T00:17:39;5.40;;;1.77;;
5054;SDS011;13829;48.990;8.346;2023-07-13T00:20:06;2.65;;;1.60;;
5054;SDS011;13829;48.990;8.346;2023-07-13T00:22:34;5.57;;;1.58;;
5054;SDS011;13829;48.990;8.346;2023-07-13T00:25:03;2.58;;;1.63;;
5054;SDS011;13829;48.990;8.346;2023-07-13T00:27:31;2.80;;;1.80;;
5054;SDS011;13829;48.990;8.346;2023-07-13T00:29:58;3.92;;;1.50;;
5054;SDS011;13829;48.990;8.346;2023-07-13T00:32:25;2.58;;;1.55;;
5054;SDS011;13829;48.990;8.346;2023-07-13T00:34:52;4.55;;;1.80;;
5054;SDS011;13829;48.990;8.346;2023-07-13T00:37:19;2.95;;;1.75;;
5054;SDS011;13829;48.990;8.346;2023-07-13T00:39:46;4.65;;;1.67;;
5054;SDS011;13829;48.990;8.346;2023-07-13T00:42:14;4.78;;;1.63;;
5054;SDS011;13829;48.990;8.346;2023-07-13T00:47:33;3.78;;;1.90;;
5054;SDS011;13829;48.990;8.346;2023-07-13T00:50:00;4.32;;;1.88;;
5054;SDS011;13829;48.990;8.346;2023-07-13T00:52:28;3.55;;;1.40;;
5054;SDS011;13829;48.990;8.346;2023-07-13T00:54:56;4.38;;;1.88;;
5054;SDS011;13829;48.990;8.346;2023-07-13T00:57:26;5.63;;;1.70;;
5054;SDS011;13829;48.990;8.346;2023-07-13T00:59:54;2.43;;;1.47;;
5054;SDS011;13829;48.990;8.346;2023-07-13T01:02:31;4.27;;;1.93;;
5054;SDS011;13829;48.990;8.346;2023-07-13T01:05:00;2.43;;;1.60;;
5054;SDS011;13829;48.990;8.346;2023-07-13T01:07:27;3.57;;;1.83;;
5054;SDS011;13829;48.990;8.346;2023-07-13T01:09:54;3.63;;;1.97;;
5054;SDS011;13829;48.990;8.346;2023-07-13T01:12:22;4.07;;;1.90;;
5054;SDS011;13829;48.990;8.346;2023-07-13T01:14:57;1.60;;;1.50;;
5054;SDS011;13829;48.990;8.346;2023-07-13T01:17:25;5.90;;;1.80;;
5054;SDS011;13829;48.990;8.346;2023-07-13T01:19:54;2.47;;;1.50;;
5054;SDS011;13829;48.990;8.346;2023-07-13T01:22:23;3.73;;;1.87;;
5054;SDS011;13829;48.990;8.346;2023-07-13T01:24:52;5.57;;;1.67;;
5054;SDS011;13829;48.990;8.346;2023-07-13T01:27:21;2.17;;;1.63;;
5054;SDS011;13829;48.990;8.346;2023-07-13T01:29:50;7.20;;;1.83;;
5054;SDS011;13829;48.990;8.346;2023-07-13T01:32:27;2.13;;;1.80;;
5054;SDS011;13829;48.990;8.346;2023-07-13T01:34:54;3.43;;;1.80;;
5054;SDS011;13829;48.990;8.346;2023-07-13T01:37:22;4.70;;;1.67;;
5054;SDS011;13829;48.990;8.346;2023-07-13T01:39:52;2.37;;;1.90;;
5054;SDS011;13829;48.990;8.346;2023-07-13T01:42:19;2.73;;;1.57;;
5054;SDS011;13829;48.990;8.346;2023-07-13T01:44:46;4.90;;;1.87;;
5054;SDS011;13829;48.990;8.346;2023-07-13T01:47:13;2.10;;;1.60;;
5054;SDS011;13829;48.990;8.346;2023-07-13T01:49:40;1.43;;;1.33;;
5054;SDS011;13829;48.990;8.346;2023-07-13T01:52:07;4.27;;;2.00;;
5054;SDS011;13829;48.990;8.346;2023-07-13T01:54:35;2.77;;;1.90;;
5054;SDS011;13829;48.990;8.346;2023-07-13T01:57:02;3.30;;;1.60;;
5054;SDS011;13829;48.990;8.346;2023-07-13T01:59:29;4.87;;;2.10;;
5054;SDS011;13829;48.990;8.346;2023-07-13T02:01:58;5.47;;;2.00;;
5054;SDS011;13829;48.990;8.346;2023-07-13T02:04:25;10.73;;;3.00;;
5054;SDS011;13829;48.990;8.346;2023-07-13T02:06:52;8.90;;;2.70;;
5054;SDS011;13829;48.990;8.346;2023-07-13T02:09:20;9.00;;;3.00;;
5054;SDS011;13829;48.990;8.346;2023-07-13T02:11:48;16.87;;;3.10;;
5054;SDS011;13829;48.990;8.346;2023-07-13T02:14:15;9.30;;;2.63;;
5054;SDS011;13829;48.990;8.346;2023-07-13T02:16:42;15.37;;;3.20;;
5054;SDS011;13829;48.990;8.346;2023-07-13T02:19:09;12.83;;;2.43;;
5054;SDS011;13829;48.990;8.346;2023-07-13T02:21:36;10.80;;;2.97;;
5054;SDS011;13829;48.990;8.346;2023-07-13T02:24:03;12.37;;;3.17;;
5054;SDS011;13829;48.990;8.346;2023-07-13T02:26:31;8.47;;;2.83;;
5054;SDS011;13829;48.990;8.346;2023-07-13T02:28:59;8.00;;;2.87;;
5054;SDS011;13829;48.990;8.346;2023-07-13T02:31:26;4.43;;;2.13;;
5054;SDS011;13829;48.990;8.346;2023-07-13T02:33:53;3.47;;;2.07;;
5054;SDS011;13829;48.990;8.346;2023-07-13T02:36:20;4.27;;;2.10;;
5054;SDS011;13829;48.990;8.346;2023-07-13T02:38:47;6.33;;;2.40;;
5054;SDS011;13829;48.990;8.346;2023-07-13T02:41:16;5.97;;;2.03;;
5054;SDS011;13829;48.990;8.346;2023-07-13T02:43:43;4.17;;;2.00;;
5054;SDS011;13829;48.990;8.346;2023-07-13T02:46:11;4.63;;;2.13;;
5054;SDS011;13829;48.990;8.346;2023-07-13T02:48:38;5.20;;;2.27;;
5054;SDS011;13829;48.990;8.346;2023-07-13T02:51:05;6.60;;;2.17;;
5054;SDS011;13829;48.990;8.346;2023-07-13T02:53:34;4.63;;;2.00;;
5054;SDS011;13829;48.990;8.346;2023-07-13T02:56:01;3.43;;;2.20;;
5054;SDS011;13829;48.990;8.346;2023-07-13T02:58:28;4.27;;;2.00;;
5054;SDS011;13829;48.990;8.346;2023-07-13T03:00:55;3.20;;;1.80;;
5054;SDS011;13829;48.990;8.346;2023-07-13T03:03:24;2.87;;;1.80;;
5054;SDS011;13829;48.990;8.346;2023-07-13T03:05:57;5.03;;;2.33;;
5054;SDS011;13829;48.990;8.346;2023-07-13T03:08:27;4.73;;;2.30;;
5054;SDS011;13829;48.990;8.346;2023-07-13T03:10:58;5.97;;;2.27;;
5054;SDS011;13829;48.990;8.346;2023-07-13T03:13:26;4.80;;;2.40;;
5054;SDS011;13829;48.990;8.346;2023-07-13T03:15:53;9.77;;;2.37;;
5054;SDS011;13829;48.990;8.346;2023-07-13T03:18:20;11.60;;;3.53;;
5054;SDS011;13829;48.990;8.346;2023-07-13T03:20:51;6.23;;;2.67;;
5054;SDS011;13829;48.990;8.346;2023-07-13T03:23:19;4.50;;;2.10;;
5054;SDS011;13829;48.990;8.346;2023-07-13T03:25:47;13.30;;;4.00;;
5054;SDS011;13829;48.990;8.346;2023-07-13T03:28:14;5.90;;;2.23;;
5054;SDS011;13829;48.990;8.346;2023-07-13T03:30:41;5.93;;;2.60;;
5054;SDS011;13829;48.990;8.346;2023-07-13T03:33:09;3.03;;;2.20;;
5054;SDS011;13829;48.990;8.346;2023-07-13T03:35:35;6.70;;;2.60;;
5054;SDS011;13829;48.990;8.346;2023-07-13T03:38:08;8.23;;;2.30;;
5054;SDS011;13829;48.990;8.346;2023-07-13T03:40:35;5.30;;;2.40;;
5054;SDS011;13829;48.990;8.346;2023-07-13T03:43:02;2.63;;;1.90;;
5054;SDS011;13829;48.990;8.346;2023-07-13T03:45:29;4.57;;;2.53;;
5054;SDS011;13829;48.990;8.346;2023-07-13T03:47:56;3.77;;;1.90;;
5054;SDS011;13829;48.990;8.346;2023-07-13T03:50:23;6.43;;;2.50;;
5054;SDS011;13829;48.990;8.346;2023-07-13T03:52:50;4.30;;;2.37;;
5054;SDS011;13829;48.990;8.346;2023-07-13T03:55:18;5.03;;;2.23;;
5054;SDS011;13829;48.990;8.346;2023-07-13T03:57:45;5.83;;;2.03;;
5054;SDS011;13829;48.990;8.346;2023-07-13T04:00:13;4.60;;;2.17;;
5054;SDS011;13829;48.990;8.346;2023-07-13T04:02:41;2.40;;;2.20;;
5054;SDS011;13829;48.990;8.346;2023-07-13T04:05:07;4.40;;;2.27;;
5054;SDS011;13829;48.990;8.346;2023-07-13T04:07:35;3.60;;;2.33;;
5054;SDS011;13829;48.990;8.346;2023-07-13T04:10:02;3.07;;;2.03;;
5054;SDS011;13829;48.990;8.346;2023-07-13T04:12:30;2.90;;;1.93;;
5054;SDS011;13829;48.990;8.346;2023-07-13T04:14:57;2.97;;;2.30;;
5054;SDS011;13829;48.990;8.346;2023-07-13T04:17:24;4.87;;;2.63;;
5054;SDS011;13829;48.990;8.346;2023-07-13T04:19:51;4.93;;;2.10;;
5054;SDS011;13829;48.990;8.346;2023-07-13T04:22:18;2.97;;;2.00;;
5054;SDS011;13829;48.990;8.346;2023-07-13T04:24:45;2.93;;;2.00;;
5054;SDS011;13829;48.990;8.346;2023-07-13T04:27:12;3.33;;;2.17;;
5054;SDS011;13829;48.990;8.346;2023-07-13T04:29:40;6.63;;;2.70;;
5054;SDS011;13829;48.990;8.346;2023-07-13T04:32:07;5.30;;;3.17;;
5054;SDS011;13829;48.990;8.346;2023-07-13T04:34:34;6.63;;;3.00;;
5054;SDS011;13829;48.990;8.346;2023-07-13T04:37:01;4.93;;;3.20;;
5054;SDS011;13829;48.990;8.346;2023-07-13T04:39:29;4.77;;;2.40;;
5054;SDS011;13829;48.990;8.346;2023-07-13T04:41:56;5.20;;;2.43;;
5054;SDS011;13829;48.990;8.346;2023-07-13T04:44:23;2.33;;;1.80;;
5054;SDS011;13829;48.990;8.346;2023-07-13T04:46:51;5.80;;;2.33;;
5054;SDS011;13829;48.990;8.346;2023-07-13T04:49:18;4.20;;;2.20;;
5054;SDS011;13829;48.990;8.346;2023-07-13T04:51:45;2.17;;;1.80;;
5054;SDS011;13829;48.990;8.346;2023-07-13T04:54:12;3.47;;;1.93;;
5054;SDS011;13829;48.990;8.346;2023-07-13T04:56:39;5.00;;;2.15;;
5054;SDS011;13829;48.990;8.346;2023-07-13T04:59:06;3.33;;;1.90;;
5054;SDS011;13829;48.990;8.346;2023-07-13T05:01:33;2.87;;;1.87;;
5054;SDS011;13829;48.990;8.346;2023-07-13T05:04:01;4.10;;;2.13;;
5054;SDS011;13829;48.990;8.346;2023-07-13T05:06:28;3.00;;;2.17;;
5054;SDS011;13829;48.990;8.346;2023-07-13T05:08:55;5.38;;;2.15;;
5054;SDS011;13829;48.990;8.346;2023-07-13T05:11:23;6.45;;;2.38;;
5054;SDS011;13829;48.990;8.346;2023-07-13T05:13:50;4.80;;;2.08;;
5054;SDS011;13829;48.990;8.346;2023-07-13T05:16:17;4.47;;;2.53;;
5054;SDS011;13829;48.990;8.346;2023-07-13T05:18:45;5.63;;;2.30;;
5054;SDS011;13829;48.990;8.346;2023-07-13T05:21:13;4.25;;;2.50;;
5054;SDS011;13829;48.990;8.346;2023-07-13T05:23:40;7.10;;;2.50;;
5054;SDS011;13829;48.990;8.346;2023-07-13T05:26:07;5.93;;;2.55;;
5054;SDS011;13829;48.990;8.346;2023-07-13T05:28:34;6.03;;;3.13;;
5054;SDS011;13829;48.990;8.346;2023-07-13T05:31:01;3.90;;;2.53;;
5054;SDS011;13829;48.990;8.346;2023-07-13T05:33:29;5.90;;;2.33;;
5054;SDS011;13829;48.990;8.346;2023-07-13T05:35:56;5.05;;;2.20;;
5054;SDS011;13829;48.990;8.346;2023-07-13T05:38:26;6.55;;;2.88;;
5054;SDS011;13829;48.990;8.346;2023-07-13T05:40:54;5.35;;;1.98;;
5054;SDS011;13829;48.990;8.346;2023-07-13T05:43:22;4.20;;;2.30;;
5054;SDS011;13829;48.990;8.346;2023-07-13T05:45:53;5.07;;;2.10;;
5054;SDS011;13829;48.990;8.346;2023-07-13T05:48:22;5.15;;;2.60;;
5054;SDS011;13829;48.990;8.346;2023-07-13T05:50:50;5.93;;;2.40;;
5054;SDS011;13829;48.990;8.346;2023-07-13T05:53:17;6.35;;;2.28;;
5054;SDS011;13829;48.990;8.346;2023-07-13T05:55:46;8.55;;;2.33;;
5054;SDS011;13829;48.990;8.346;2023-07-13T05:58:15;5.32;;;1.95;;
5054;SDS011;13829;48.990;8.346;2023-07-13T06:00:43;4.18;;;1.83;;
5054;SDS011;13829;48.990;8.346;2023-07-13T06:03:11;4.90;;;1.92;;
5054;SDS011;13829;48.990;8.346;2023-07-13T06:05:37;4.50;;;2.30;;
5054;SDS011;13829;48.990;8.346;2023-07-13T06:08:05;5.75;;;2.05;;
5054;SDS011;13829;48.990;8.346;2023-07-13T06:10:33;8.68;;;2.47;;
5054;SDS011;13829;48.990;8.346;2023-07-13T06:13:02;3.55;;;1.90;;
5054;SDS011;13829;48.990;8.346;2023-07-13T06:15:29;3.13;;;2.05;;
5054;SDS011;13829;48.990;8.346;2023-07-13T06:17:56;5.68;;;2.30;;
5054;SDS011;13829;48.990;8.346;2023-07-13T06:20:23;5.25;;;2.03;;
5054;SDS011;13829;48.990;8.346;2023-07-13T06:22:50;5.82;;;2.42;;
5054;SDS011;13829;48.990;8.346;2023-07-13T06:25:16;2.83;;;2.10;;
5054;SDS011;13829;48.990;8.346;2023-07-13T06:27:44;4.07;;;1.90;;
5054;SDS011;13829;48.990;8.346;2023-07-13T06:30:12;3.60;;;2.17;;
5054;SDS011;13829;48.990;8.346;2023-07-13T06:32:40;5.00;;;2.00;;
5054;SDS011;13829;48.990;8.346;2023-07-13T06:35:07;5.57;;;1.88;;
5054;SDS011;13829;48.990;8.346;2023-07-13T06:37:37;4.75;;;1.67;;
5054;SDS011;13829;48.990;8.346;2023-07-13T06:40:04;5.65;;;2.40;;
5054;SDS011;13829;48.990;8.346;2023-07-13T06:42:33;5.25;;;1.83;;
5054;SDS011;13829;48.990;8.346;2023-07-13T06:45:00;5.68;;;1.65;;
5054;SDS011;13829;48.990;8.346;2023-07-13T06:47:28;3.70;;;1.85;;
5054;SDS011;13829;48.990;8.346;2023-07-13T06:49:55;4.20;;;1.60;;
5054;SDS011;13829;48.990;8.346;2023-07-13T06:52:23;7.75;;;1.85;;
5054;SDS011;13829;48.990;8.346;2023-07-13T06:54:50;4.80;;;1.80;;
5054;SDS011;13829;48.990;8.346;2023-07-13T06:57:17;3.13;;;1.60;;
5054;SDS011;13829;48.990;8.346;2023-07-13T06:59:44;3.78;;;2.00;;
5054;SDS011;13829;48.990;8.346;2023-07-13T07:02:12;3.55;;;1.60;;
5054;SDS011;13829;48.990;8.346;2023-07-13T07:04:40;4.35;;;1.63;;
5054;SDS011;13829;48.990;8.346;2023-07-13T07:07:07;3.38;;;1.55;;
5054;SDS011;13829;48.990;8.346;2023-07-13T07:09:34;4.63;;;1.80;;
5054;SDS011;13829;48.990;8.346;2023-07-13T07:12:01;4.68;;;1.70;;
5054;SDS011;13829;48.990;8.346;2023-07-13T07:14:29;6.63;;;1.40;;
5054;SDS011;13829;48.990;8.346;2023-07-13T07:16:59;2.22;;;1.23;;
5054;SDS011;13829;48.990;8.346;2023-07-13T07:19:27;2.85;;;1.08;;
5054;SDS011;13829;48.990;8.346;2023-07-13T07:21:56;3.70;;;1.60;;
5054;SDS011;13829;48.990;8.346;2023-07-13T07:24:23;2.17;;;1.50;;
5054;SDS011;13829;48.990;8.346;2023-07-13T07:26:50;6.60;;;1.67;;
5054;SDS011;13829;48.990;8.346;2023-07-13T07:29:17;2.90;;;1.55;;
5054;SDS011;13829;48.990;8.346;2023-07-13T07:31:44;4.03;;;1.40;;
5054;SDS011;13829;48.990;8.346;2023-07-13T07:34:11;4.97;;;1.50;;
5054;SDS011;13829;48.990;8.346;2023-07-13T07:36:38;2.55;;;1.10;;
5054;SDS011;13829;48.990;8.346;2023-07-13T07:39:06;3.58;;;1.38;;
5054;SDS011;13829;48.990;8.346;2023-07-13T07:41:33;3.28;;;1.30;;
5054;SDS011;13829;48.990;8.346;2023-07-13T07:44:00;6.85;;;1.40;;
5054;SDS011;13829;48.990;8.346;2023-07-13T07:46:27;4.43;;;1.40;;
5054;SDS011;13829;48.990;8.346;2023-07-13T07:48:55;7.60;;;1.50;;
5054;SDS011;13829;48.990;8.346;2023-07-13T07:51:22;5.85;;;1.52;;
5054;SDS011;13829;48.990;8.346;2023-07-13T07:53:49;4.47;;;1.30;;
5054;SDS011;13829;48.990;8.346;2023-07-13T07:56:17;4.05;;;1.15;;
5054;SDS011;13829;48.990;8.346;2023-07-13T07:58:44;3.83;;;1.50;;
5054;SDS011;13829;48.990;8.346;2023-07-13T08:01:11;2.00;;;1.05;;
5054;SDS011;13829;48.990;8.346;2023-07-13T08:03:38;4.70;;;1.50;;
5054;SDS011;13829;48.990;8.346;2023-07-13T08:06:05;2.70;;;1.23;;
5054;SDS011;13829;48.990;8.346;2023-07-13T08:08:32;4.25;;;1.60;;
5054;SDS011;13829;48.990;8.346;2023-07-13T08:11:02;2.90;;;1.10;;
5054;SDS011;13829;48.990;8.346;2023-07-13T08:13:31;2.50;;;1.20;;
5054;SDS011;13829;48.990;8.346;2023-07-13T08:15:58;2.45;;;1.20;;
5054;SDS011;13829;48.990;8.346;2023-07-13T08:18:25;3.72;;;1.10;;
5054;SDS011;13829;48.990;8.346;2023-07-13T08:20:53;2.17;;;1.20;;
5054;SDS011;13829;48.990;8.346;2023-07-13T08:23:21;2.03;;;1.10;;
5054;SDS011;13829;48.990;8.346;2023-07-13T08:25:52;2.10;;;1.05;;
5054;SDS011;13829;48.990;8.346;2023-07-13T08:28:21;2.67;;;1.23;;
5054;SDS011;13829;48.990;8.346;2023-07-13T08:30:51;2.97;;;1.20;;
5054;SDS011;13829;48.990;8.346;2023-07-13T08:33:18;3.22;;;1.42;;
5054;SDS011;13829;48.990;8.346;2023-07-13T08:35:49;4.38;;;1.15;;
5054;SDS011;13829;48.990;8.346;2023-07-13T08:38:17;3.67;;;1.50;;
5054;SDS011;13829;48.990;8.346;2023-07-13T08:40:45;5.45;;;1.40;;
5054;SDS011;13829;48.990;8.346;2023-07-13T08:43:20;2.88;;;1.20;;
5054;SDS011;13829;48.990;8.346;2023-07-13T08:45:56;5.75;;;1.20;;
5054;SDS011;13829;48.990;8.346;2023-07-13T08:48:32;2.70;;;1.58;;
5054;SDS011;13829;48.990;8.346;2023-07-13T08:51:09;3.17;;;1.35;;
5054;SDS011;13829;48.990;8.346;2023-07-13T08:54:00;7.15;;;1.60;;
5054;SDS011;13829;48.990;8.346;2023-07-13T08:56:31;2.70;;;1.45;;
5054;SDS011;13829;48.990;8.346;2023-07-13T08:59:00;3.05;;;1.30;;
5054;SDS011;13829;48.990;8.346;2023-07-13T09:01:43;2.75;;;1.27;;
5054;SDS011;13829;48.990;8.346;2023-07-13T09:04:32;3.83;;;1.55;;
5054;SDS011;13829;48.990;8.346;2023-07-13T09:07:07;6.68;;;1.33;;
5054;SDS011;13829;48.990;8.346;2023-07-13T09:09:50;3.85;;;1.40;;
5054;SDS011;13829;48.990;8.346;2023-07-13T09:12:32;2.33;;;1.00;;
5054;SDS011;13829;48.990;8.346;2023-07-13T09:15:17;3.25;;;1.33;;
5054;SDS011;13829;48.990;8.346;2023-07-13T09:17:53;1.92;;;1.10;;
5054;SDS011;13829;48.990;8.346;2023-07-13T09:20:26;5.63;;;1.33;;
5054;SDS011;13829;48.990;8.346;2023-07-13T09:23:00;2.50;;;1.30;;
5054;SDS011;13829;48.990;8.346;2023-07-13T09:25:33;2.92;;;1.20;;
5054;SDS011;13829;48.990;8.346;2023-07-13T09:28:05;2.83;;;1.23;;
5054;SDS011;13829;48.990;8.346;2023-07-13T09:30:43;5.90;;;1.20;;
5054;SDS011;13829;48.990;8.346;2023-07-13T09:33:20;3.53;;;1.20;;
5054;SDS011;13829;48.990;8.346;2023-07-13T09:35:47;3.70;;;1.15;;
5054;SDS011;13829;48.990;8.346;2023-07-13T09:38:15;3.80;;;1.45;;
5054;SDS011;13829;48.990;8.346;2023-07-13T09:40:49;3.03;;;1.20;;
5054;SDS011;13829;48.990;8.346;2023-07-13T09:43:35;3.88;;;1.05;;
5054;SDS011;13829;48.990;8.346;2023-07-13T09:46:03;4.70;;;1.20;;
5054;SDS011;13829;48.990;8.346;2023-07-13T09:48:35;5.65;;;1.35;;
5054;SDS011;13829;48.990;8.346;2023-07-13T09:51:13;2.63;;;1.00;;
5054;SDS011;13829;48.990;8.346;2023-07-13T09:53:41;4.70;;;1.20;;
5054;SDS011;13829;48.990;8.346;2023-07-13T09:56:18;2.25;;;1.30;;
5054;SDS011;13829;48.990;8.346;2023-07-13T09:58:47;3.05;;;1.17;;
5054;SDS011;13829;48.990;8.346;2023-07-13T10:01:14;4.35;;;1.00;;
5054;SDS011;13829;48.990;8.346;2023-07-13T10:03:51;5.85;;;1.48;;
5054;SDS011;13829;48.990;8.346;2023-07-13T10:06:20;4.38;;;1.30;;
5054;SDS011;13829;48.990;8.346;2023-07-13T10:08:49;3.63;;;1.60;;
5054;SDS011;13829;48.990;8.346;2023-07-13T10:11:18;4.15;;;1.48;;
5054;SDS011;13829;48.990;8.346;2023-07-13T10:13:50;7.55;;;2.13;;
5054;SDS011;13829;48.990;8.346;2023-07-13T10:16:21;4.28;;;1.60;;
5054;SDS011;13829;48.990;8.346;2023-07-13T10:18:53;2.08;;;1.25;;
5054;SDS011;13829;48.990;8.346;2023-07-13T10:21:27;3.22;;;1.48;;
5054;SDS011;13829;48.990;8.346;2023-07-13T10:23:59;3.10;;;1.55;;
5054;SDS011;13829;48.990;8.346;2023-07-13T10:26:39;2.17;;;1.25;;
5054;SDS011;13829;48.990;8.346;2023-07-13T10:29:14;3.10;;;1.45;;
5054;SDS011;13829;48.990;8.346;2023-07-13T10:31:44;5.78;;;1.95;;
5054;SDS011;13829;48.990;8.346;2023-07-13T10:34:13;3.20;;;1.40;;
5054;SDS011;13829;48.990;8.346;2023-07-13T10:36:41;3.78;;;1.63;;
5054;SDS011;13829;48.990;8.346;2023-07-13T10:39:14;3.22;;;1.63;;
5054;SDS011;13829;48.990;8.346;2023-07-13T10:41:47;3.30;;;1.85;;
5054;SDS011;13829;48.990;8.346;2023-07-13T10:44:23;5.82;;;1.55;;
5054;SDS011;13829;48.990;8.346;2023-07-13T10:46:54;4.85;;;1.42;;
5054;SDS011;13829;48.990;8.346;2023-07-13T10:49:27;2.80;;;1.35;;
5054;SDS011;13829;48.990;8.346;2023-07-13T10:51:57;5.78;;;1.50;;
5054;SDS011;13829;48.990;8.346;2023-07-13T10:54:26;3.78;;;1.60;;
5054;SDS011;13829;48.990;8.346;2023-07-13T10:57:07;5.88;;;1.55;;
5054;SDS011;13829;48.990;8.346;2023-07-13T10:59:48;3.08;;;1.70;;
5054;SDS011;13829;48.990;8.346;2023-07-13T11:02:40;4.82;;;1.73;;
5054;SDS011;13829;48.990;8.346;2023-07-13T11:05:16;3.45;;;1.60;;
5054;SDS011;13829;48.990;8.346;2023-07-13T11:07:55;4.57;;;1.52;;
5054;SDS011;13829;48.990;8.346;2023-07-13T11:10:49;3.33;;;1.45;;
5054;SDS011;13829;48.990;8.346;2023-07-13T11:13:38;5.95;;;1.30;;
5054;SDS011;13829;48.990;8.346;2023-07-13T11:16:36;4.90;;;1.65;;
5054;SDS011;13829;48.990;8.346;2023-07-13T11:19:27;6.85;;;1.50;;
5054;SDS011;13829;48.990;8.346;2023-07-13T11:22:12;3.80;;;1.50;;
5054;SDS011;13829;48.990;8.346;2023-07-13T11:24:50;3.42;;;1.60;;
5054;SDS011;13829;48.990;8.346;2023-07-13T11:27:33;4.88;;;1.38;;
5054;SDS011;13829;48.990;8.346;2023-07-13T11:30:08;3.55;;;1.42;;
5054;SDS011;13829;48.990;8.346;2023-07-13T11:32:49;3.22;;;1.27;;
5054;SDS011;13829;48.990;8.346;2023-07-13T11:35:38;4.38;;;1.40;;
5054;SDS011;13829;48.990;8.346;2023-07-13T11:38:15;4.45;;;1.83;;
5054;SDS011;13829;48.990;8.346;2023-07-13T11:40:45;2.30;;;1.55;;
5054;SDS011;13829;48.990;8.346;2023-07-13T11:43:15;3.80;;;1.50;;
5054;SDS011;13829;48.990;8.346;2023-07-13T11:45:42;3.22;;;1.60;;
5054;SDS011;13829;48.990;8.346;2023-07-13T11:48:20;2.85;;;1.40;;
5054;SDS011;13829;48.990;8.346;2023-07-13T11:50:55;2.97;;;1.52;;
5054;SDS011;13829;48.990;8.346;2023-07-13T11:53:28;4.68;;;1.70;;
5054;SDS011;13829;48.990;8.346;2023-07-13T11:56:04;3.20;;;1.30;;
5054;SDS011;13829;48.990;8.346;2023-07-13T11:58:31;5.35;;;1.83;;
5054;SDS011;13829;48.990;8.346;2023-07-13T12:00:59;4.18;;;1.88;;
5054;SDS011;13829;48.990;8.346;2023-07-13T12:03:31;2.75;;;1.60;;
5054;SDS011;13829;48.990;8.346;2023-07-13T12:06:00;4.53;;;1.63;;
5054;SDS011;13829;48.990;8.346;2023-07-13T12:08:37;4.50;;;1.90;;
5054;SDS011;13829;48.990;8.346;2023-07-13T12:11:09;4.55;;;1.70;;
5054;SDS011;13829;48.990;8.346;2023-07-13T12:13:43;3.40;;;1.60;;
5054;SDS011;13829;48.990;8.346;2023-07-13T12:16:14;3.63;;;1.63;;
5054;SDS011;13829;48.990;8.346;2023-07-13T12:18:48;3.22;;;1.63;;
5054;SDS011;13829;48.990;8.346;2023-07-13T12:21:19;3.90;;;1.50;;
5054;SDS011;13829;48.990;8.346;2023-07-13T12:23:51;5.10;;;1.70;;
5054;SDS011;13829;48.990;8.346;2023-07-13T12:26:18;4.50;;;1.67;;
5054;SDS011;13829;48.990;8.346;2023-07-13T12:28:46;4.35;;;1.92;;
5054;SDS011;13829;48.990;8.346;2023-07-13T12:34:02;3.75;;;1.73;;
5054;SDS011;13829;48.990;8.346;2023-07-13T12:36:34;6.82;;;1.80;;
5054;SDS011;13829;48.990;8.346;2023-07-13T12:39:11;3.42;;;1.35;;
5054;SDS011;13829;48.990;8.346;2023-07-13T12:41:41;4.10;;;1.40;;
5054;SDS011;13829;48.990;8.346;2023-07-13T12:44:11;3.72;;;1.48;;
5054;SDS011;13829;48.990;8.346;2023-07-13T12:46:51;3.13;;;1.33;;
5054;SDS011;13829;48.990;8.346;2023-07-13T12:49:26;3.15;;;1.42;;
5054;SDS011;13829;48.990;8.346;2023-07-13T12:51:58;4.45;;;1.50;;
5054;SDS011;13829;48.990;8.346;2023-07-13T12:54:30;4.35;;;1.58;;
5054;SDS011;13829;48.990;8.346;2023-07-13T12:56:58;3.72;;;1.65;;
5054;SDS011;13829;48.990;8.346;2023-07-13T12:59:29;5.88;;;1.35;;
5054;SDS011;13829;48.990;8.346;2023-07-13T13:02:02;1.33;;;1.10;;
5054;SDS011;13829;48.990;8.346;2023-07-13T13:04:48;3.22;;;1.42;;
5054;SDS011;13829;48.990;8.346;2023-07-13T13:07:15;4.78;;;1.50;;
5054;SDS011;13829;48.990;8.346;2023-07-13T13:09:44;4.65;;;1.63;;
5054;SDS011;13829;48.990;8.346;2023-07-13T13:12:12;4.55;;;1.60;;
5054;SDS011;13829;48.990;8.346;2023-07-13T13:14:40;4.13;;;1.73;;
5054;SDS011;13829;48.990;8.346;2023-07-13T13:17:11;4.32;;;1.80;;
5054;SDS011;13829;48.990;8.346;2023-07-13T13:19:48;3.58;;;1.30;;
5054;SDS011;13829;48.990;8.346;2023-07-13T13:22:15;4.90;;;1.40;;
5054;SDS011;13829;48.990;8.346;2023-07-13T13:24:43;3.13;;;1.20;;
5054;SDS011;13829;48.990;8.346;2023-07-13T13:27:13;5.30;;;1.40;;
5054;SDS011;13829;48.990;8.346;2023-07-13T13:29:44;4.15;;;1.70;;
5054;SDS011;13829;48.990;8.346;2023-07-13T13:32:12;1.98;;;1.25;;
5054;SDS011;13829;48.990;8.346;2023-07-13T13:34:40;2.97;;;1.17;;
5054;SDS011;13829;48.990;8.346;2023-07-13T13:37:15;4.50;;;1.88;;
5054;SDS011;13829;48.990;8.346;2023-07-13T13:39:47;4.53;;;1.35;;
5054;SDS011;13829;48.990;8.346;2023-07-13T13:42:17;2.67;;;1.10;;
5054;SDS011;13829;48.990;8.346;2023-07-13T13:44:46;3.53;;;1.55;;
5054;SDS011;13829;48.990;8.346;2023-07-13T13:47:26;2.63;;;1.13;;
5054;SDS011;13829;48.990;8.346;2023-07-13T13:49:57;3.95;;;1.35;;
5054;SDS011;13829;48.990;8.346;2023-07-13T13:52:25;3.63;;;1.08;;
5054;SDS011;13829;48.990;8.346;2023-07-13T13:54:53;1.90;;;1.20;;
5054;SDS011;13829;48.990;8.346;2023-07-13T13:57:21;2.30;;;1.48;;
5054;SDS011;13829;48.990;8.346;2023-07-13T13:59:50;3.22;;;1.30;;
5054;SDS011;13829;48.990;8.346;2023-07-13T14:02:25;3.47;;;1.55;;
5054;SDS011;13829;48.990;8.346;2023-07-13T14:04:56;1.60;;;1.10;;
5054;SDS011;13829;48.990;8.346;2023-07-13T14:07:27;2.47;;;1.20;;
5054;SDS011;13829;48.990;8.346;2023-07-13T14:09:57;5.32;;;1.55;;
5054;SDS011;13829;48.990;8.346;2023-07-13T14:12:26;2.83;;;1.20;;
5054;SDS011;13829;48.990;8.346;2023-07-13T14:14:55;1.25;;;1.13;;
5054;SDS011;13829;48.990;8.346;2023-07-13T14:17:24;3.92;;;1.40;;
5054;SDS011;13829;48.990;8.346;2023-07-13T14:19:53;5.35;;;1.65;;
5054;SDS011;13829;48.990;8.346;2023-07-13T14:22:22;2.55;;;1.35;;
5054;SDS011;13829;48.990;8.346;2023-07-13T14:24:51;4.72;;;1.13;;
5054;SDS011;13829;48.990;8.346;2023-07-13T14:27:20;2.25;;;1.38;;
5054;SDS011;13829;48.990;8.346;2023-07-13T14:29:48;4.22;;;1.40;;
5054;SDS011;13829;48.990;8.346;2023-07-13T14:32:14;3.05;;;1.70;;
5054;SDS011;13829;48.990;8.346;2023-07-13T14:34:42;2.83;;;1.50;;
5054;SDS011;13829;48.990;8.346;2023-07-13T14:37:11;1.98;;;1.40;;
5054;SDS011;13829;48.990;8.346;2023-07-13T14:39:42;3.85;;;1.40;;
5054;SDS011;13829;48.990;8.346;2023-07-13T14:42:10;3.90;;;1.52;;
5054;SDS011;13829;48.990;8.346;2023-07-13T14:44:39;2.85;;;1.30;;
5054;SDS011;13829;48.990;8.346;2023-07-13T14:47:06;2.33;;;1.50;;
5054;SDS011;13829;48.990;8.346;2023-07-13T14:49:37;2.70;;;1.33;;
5054;SDS011;13829;48.990;8.346;2023-07-13T14:52:10;2.15;;;1.40;;
5054;SDS011;13829;48.990;8.346;2023-07-13T14:54:40;4.15;;;1.27;;
5054;SDS011;13829;48.990;8.346;2023-07-13T14:57:12;3.15;;;1.42;;
5054;SDS011;13829;48.990;8.346;2023-07-13T14:59:41;2.03;;;1.02;;
5054;SDS011;13829;48.990;8.346;2023-07-13T15:02:14;6.88;;;1.75;;
5054;SDS011;13829;48.990;8.346;2023-07-13T15:04:44;6.80;;;1.90;;
5054;SDS011;13829;48.990;8.346;2023-07-13T15:07:11;5.38;;;1.50;;
5054;SDS011;13829;48.990;8.346;2023-07-13T15:09:40;7.45;;;1.92;;
5054;SDS011;13829;48.990;8.346;2023-07-13T15:12:08;2.47;;;1.20;;
5054;SDS011;13829;48.990;8.346;2023-07-13T15:14:35;4.20;;;1.63;;
5054;SDS011;13829;48.990;8.346;2023-07-13T15:17:05;2.35;;;1.08;;
5054;SDS011;13829;48.990;8.346;2023-07-13T15:19:53;3.30;;;1.52;;
5054;SDS011;13829;48.990;8.346;2023-07-13T15:22:21;5.38;;;1.60;;